sensor_id;sensor_type;location;lat;lon;timestamp;P1;durP1;ratioP1;P2;durP2;ratioP2
16892;SDS011;8563;52.242;9.098;2023-04-16T00:02:32;30.60;;;27.33;;
16892;SDS011;8563;52.242;9.098;2023-04-16T00:05:04;32.63;;;26.77;;
16892;SDS011;8563;52.242;9.098;2023-04-16T00:07:37;26.77;;;24.17;;
16892;SDS011;8563;52.242;9.098;2023-04-16T00:10:11;29.20;;;26.17;;
16892;SDS011;8563;52.242;9.098;2023-04-16T00:12:45;25.40;;;22.87;;
16892;SDS011;8563;52.242;9.098;2023-04-16T00:15:17;30.07;;;26.23;;
16892;SDS011;8563;52.242;9.098;2023-04-16T00:17:49;28.07;;;25.07;;
16892;SDS011;8563;52.242;9.098;2023-04-16T00:20:22;24.67;;;22.23;;
16892;SDS011;8563;52.242;9.098;2023-04-16T00:22:54;27.43;;;24.67;;
16892;SDS011;8563;52.242;9.098;2023-04-16T00:25:27;24.73;;;22.37;;
16892;SDS011;8563;52.242;9.098;2023-04-16T00:28:00;27.70;;;24.70;;
16892;SDS011;8563;52.242;9.098;2023-04-16T00:30:32;24.83;;;22.37;;
16892;SDS011;8563;52.242;9.098;2023-04-16T00:33:05;30.87;;;27.47;;
16892;SDS011;8563;52.242;9.098;2023-04-16T00:35:37;30.17;;;27.07;;
16892;SDS011;8563;52.242;9.098;2023-04-16T00:38:09;27.63;;;24.63;;
16892;SDS011;8563;52.242;9.098;2023-04-16T00:40:43;30.47;;;27.27;;
16892;SDS011;8563;52.242;9.098;2023-04-16T00:43:19;28.77;;;25.77;;
16892;SDS011;8563;52.242;9.098;2023-04-16T00:45:54;29.50;;;26.50;;
16892;SDS011;8563;52.242;9.098;2023-04-16T00:48:27;27.70;;;24.87;;
16892;SDS011;8563;52.242;9.098;2023-04-16T00:51:02;26.27;;;23.67;;
16892;SDS011;8563;52.242;9.098;2023-04-16T00:53:35;29.03;;;25.60;;
16892;SDS011;8563;52.242;9.098;2023-04-16T00:56:09;31.30;;;25.33;;
16892;SDS011;8563;52.242;9.098;2023-04-16T00:58:43;26.70;;;24.10;;
16892;SDS011;8563;52.242;9.098;2023-04-16T01:01:16;28.07;;;25.17;;
16892;SDS011;8563;52.242;9.098;2023-04-16T01:03:48;27.37;;;24.53;;
16892;SDS011;8563;52.242;9.098;2023-04-16T01:06:20;27.20;;;24.37;;
16892;SDS011;8563;52.242;9.098;2023-04-16T01:08:52;26.70;;;23.90;;
16892;SDS011;8563;52.242;9.098;2023-04-16T01:11:26;23.03;;;20.73;;
16892;SDS011;8563;52.242;9.098;2023-04-16T01:13:59;24.03;;;21.63;;
16892;SDS011;8563;52.242;9.098;2023-04-16T01:16:31;24.00;;;21.70;;
16892;SDS011;8563;52.242;9.098;2023-04-16T01:19:03;24.70;;;22.30;;
16892;SDS011;8563;52.242;9.098;2023-04-16T01:21:37;23.33;;;20.93;;
16892;SDS011;8563;52.242;9.098;2023-04-16T01:24:09;24.10;;;21.63;;
16892;SDS011;8563;52.242;9.098;2023-04-16T01:26:43;22.03;;;19.93;;
16892;SDS011;8563;52.242;9.098;2023-04-16T01:29:15;24.33;;;21.70;;
16892;SDS011;8563;52.242;9.098;2023-04-16T01:31:48;22.67;;;20.37;;
16892;SDS011;8563;52.242;9.098;2023-04-16T01:34:29;24.10;;;21.00;;
16892;SDS011;8563;52.242;9.098;2023-04-16T01:37:03;21.73;;;19.43;;
16892;SDS011;8563;52.242;9.098;2023-04-16T01:39:36;21.13;;;19.10;;
16892;SDS011;8563;52.242;9.098;2023-04-16T01:42:08;23.35;;;21.02;;
16892;SDS011;8563;52.242;9.098;2023-04-16T01:44:40;21.97;;;19.77;;
16892;SDS011;8563;52.242;9.098;2023-04-16T01:47:12;20.30;;;18.40;;
16892;SDS011;8563;52.242;9.098;2023-04-16T01:49:44;20.53;;;18.57;;
16892;SDS011;8563;52.242;9.098;2023-04-16T01:52:18;23.67;;;20.73;;
16892;SDS011;8563;52.242;9.098;2023-04-16T01:54:51;21.70;;;19.30;;
16892;SDS011;8563;52.242;9.098;2023-04-16T01:57:23;21.77;;;19.20;;
16892;SDS011;8563;52.242;9.098;2023-04-16T01:59:56;21.27;;;19.20;;
16892;SDS011;8563;52.242;9.098;2023-04-16T02:02:29;20.70;;;18.70;;
16892;SDS011;8563;52.242;9.098;2023-04-16T02:05:03;21.13;;;18.87;;
16892;SDS011;8563;52.242;9.098;2023-04-16T02:07:37;21.20;;;18.50;;
16892;SDS011;8563;52.242;9.098;2023-04-16T02:10:09;21.10;;;18.87;;
16892;SDS011;8563;52.242;9.098;2023-04-16T02:12:43;23.40;;;19.47;;
16892;SDS011;8563;52.242;9.098;2023-04-16T02:15:17;21.07;;;18.87;;
16892;SDS011;8563;52.242;9.098;2023-04-16T02:17:49;22.07;;;18.97;;
16892;SDS011;8563;52.242;9.098;2023-04-16T02:20:26;20.80;;;18.67;;
16892;SDS011;8563;52.242;9.098;2023-04-16T02:23:04;21.20;;;18.97;;
16892;SDS011;8563;52.242;9.098;2023-04-16T02:25:39;21.70;;;19.40;;
16892;SDS011;8563;52.242;9.098;2023-04-16T02:28:14;21.57;;;19.37;;
16892;SDS011;8563;52.242;9.098;2023-04-16T02:30:49;22.13;;;19.93;;
16892;SDS011;8563;52.242;9.098;2023-04-16T02:33:23;21.13;;;18.90;;
16892;SDS011;8563;52.242;9.098;2023-04-16T02:36:02;19.83;;;17.83;;
16892;SDS011;8563;52.242;9.098;2023-04-16T02:38:36;21.23;;;19.03;;
16892;SDS011;8563;52.242;9.098;2023-04-16T02:41:09;21.17;;;18.97;;
16892;SDS011;8563;52.242;9.098;2023-04-16T02:43:41;20.53;;;18.53;;
16892;SDS011;8563;52.242;9.098;2023-04-16T02:46:13;21.27;;;19.07;;
16892;SDS011;8563;52.242;9.098;2023-04-16T02:48:45;22.57;;;19.40;;
16892;SDS011;8563;52.242;9.098;2023-04-16T02:51:17;21.17;;;18.80;;
16892;SDS011;8563;52.242;9.098;2023-04-16T02:53:51;22.10;;;19.80;;
16892;SDS011;8563;52.242;9.098;2023-04-16T02:56:23;20.63;;;18.53;;
16892;SDS011;8563;52.242;9.098;2023-04-16T02:58:56;21.50;;;18.87;;
16892;SDS011;8563;52.242;9.098;2023-04-16T03:01:28;21.03;;;18.13;;
16892;SDS011;8563;52.242;9.098;2023-04-16T03:04:00;21.57;;;19.43;;
16892;SDS011;8563;52.242;9.098;2023-04-16T03:06:32;21.90;;;19.53;;
16892;SDS011;8563;52.242;9.098;2023-04-16T03:09:06;23.03;;;20.03;;
16892;SDS011;8563;52.242;9.098;2023-04-16T03:11:38;22.43;;;20.10;;
16892;SDS011;8563;52.242;9.098;2023-04-16T03:14:11;23.50;;;21.00;;
16892;SDS011;8563;52.242;9.098;2023-04-16T03:16:43;24.90;;;20.47;;
16892;SDS011;8563;52.242;9.098;2023-04-16T03:19:15;22.93;;;19.70;;
16892;SDS011;8563;52.242;9.098;2023-04-16T03:21:47;22.83;;;20.43;;
16892;SDS011;8563;52.242;9.098;2023-04-16T03:24:23;22.73;;;20.37;;
16892;SDS011;8563;52.242;9.098;2023-04-16T03:26:56;23.00;;;20.63;;
16892;SDS011;8563;52.242;9.098;2023-04-16T03:29:28;21.40;;;19.10;;
16892;SDS011;8563;52.242;9.098;2023-04-16T03:32:01;23.27;;;20.87;;
16892;SDS011;8563;52.242;9.098;2023-04-16T03:34:34;22.97;;;20.50;;
16892;SDS011;8563;52.242;9.098;2023-04-16T03:37:07;22.53;;;20.23;;
16892;SDS011;8563;52.242;9.098;2023-04-16T03:39:43;23.63;;;20.60;;
16892;SDS011;8563;52.242;9.098;2023-04-16T03:42:15;22.37;;;20.17;;
16892;SDS011;8563;52.242;9.098;2023-04-16T03:44:48;19.97;;;17.93;;
16892;SDS011;8563;52.242;9.098;2023-04-16T03:47:22;24.60;;;20.33;;
16892;SDS011;8563;52.242;9.098;2023-04-16T03:49:57;22.70;;;19.30;;
16892;SDS011;8563;52.242;9.098;2023-04-16T03:52:30;24.63;;;21.20;;
16892;SDS011;8563;52.242;9.098;2023-04-16T03:55:04;25.33;;;22.67;;
16892;SDS011;8563;52.242;9.098;2023-04-16T03:57:38;22.87;;;20.03;;
16892;SDS011;8563;52.242;9.098;2023-04-16T04:00:14;24.70;;;22.07;;
16892;SDS011;8563;52.242;9.098;2023-04-16T04:03:03;25.47;;;22.73;;
16892;SDS011;8563;52.242;9.098;2023-04-16T04:05:36;25.30;;;22.37;;
16892;SDS011;8563;52.242;9.098;2023-04-16T04:08:10;24.63;;;22.03;;
16892;SDS011;8563;52.242;9.098;2023-04-16T04:10:44;26.20;;;22.27;;
16892;SDS011;8563;52.242;9.098;2023-04-16T04:13:18;27.90;;;23.13;;
16892;SDS011;8563;52.242;9.098;2023-04-16T04:15:51;25.50;;;22.80;;
16892;SDS011;8563;52.242;9.098;2023-04-16T04:18:25;24.27;;;21.70;;
16892;SDS011;8563;52.242;9.098;2023-04-16T04:20:57;25.27;;;22.30;;
16892;SDS011;8563;52.242;9.098;2023-04-16T04:23:32;22.83;;;20.43;;
16892;SDS011;8563;52.242;9.098;2023-04-16T04:26:07;25.90;;;23.17;;
16892;SDS011;8563;52.242;9.098;2023-04-16T04:28:39;24.97;;;22.47;;
16892;SDS011;8563;52.242;9.098;2023-04-16T04:31:11;26.77;;;23.77;;
16892;SDS011;8563;52.242;9.098;2023-04-16T04:33:44;28.67;;;23.00;;
16892;SDS011;8563;52.242;9.098;2023-04-16T04:36:16;26.67;;;23.30;;
16892;SDS011;8563;52.242;9.098;2023-04-16T04:38:48;25.90;;;23.20;;
16892;SDS011;8563;52.242;9.098;2023-04-16T04:41:22;23.97;;;21.47;;
16892;SDS011;8563;52.242;9.098;2023-04-16T04:43:56;27.80;;;24.37;;
16892;SDS011;8563;52.242;9.098;2023-04-16T04:46:28;26.77;;;23.33;;
16892;SDS011;8563;52.242;9.098;2023-04-16T04:49:01;24.47;;;21.93;;
16892;SDS011;8563;52.242;9.098;2023-04-16T04:51:34;26.67;;;23.87;;
16892;SDS011;8563;52.242;9.098;2023-04-16T04:54:07;25.10;;;22.47;;
16892;SDS011;8563;52.242;9.098;2023-04-16T04:56:40;27.80;;;23.37;;
16892;SDS011;8563;52.242;9.098;2023-04-16T04:59:14;26.70;;;23.57;;
16892;SDS011;8563;52.242;9.098;2023-04-16T05:01:48;25.97;;;23.17;;
16892;SDS011;8563;52.242;9.098;2023-04-16T05:04:20;26.67;;;22.97;;
16892;SDS011;8563;52.242;9.098;2023-04-16T05:06:52;25.73;;;23.07;;
16892;SDS011;8563;52.242;9.098;2023-04-16T05:09:25;26.93;;;23.50;;
16892;SDS011;8563;52.242;9.098;2023-04-16T05:11:58;25.90;;;23.20;;
16892;SDS011;8563;52.242;9.098;2023-04-16T05:14:30;27.00;;;23.40;;
16892;SDS011;8563;52.242;9.098;2023-04-16T05:17:02;27.97;;;24.50;;
16892;SDS011;8563;52.242;9.098;2023-04-16T05:19:35;27.83;;;24.83;;
16892;SDS011;8563;52.242;9.098;2023-04-16T05:22:07;30.23;;;27.03;;
16892;SDS011;8563;52.242;9.098;2023-04-16T05:24:39;28.23;;;24.07;;
16892;SDS011;8563;52.242;9.098;2023-04-16T05:27:13;31.60;;;26.13;;
16892;SDS011;8563;52.242;9.098;2023-04-16T05:29:45;31.03;;;25.80;;
16892;SDS011;8563;52.242;9.098;2023-04-16T05:32:17;28.83;;;25.00;;
16892;SDS011;8563;52.242;9.098;2023-04-16T05:34:49;30.30;;;25.37;;
16892;SDS011;8563;52.242;9.098;2023-04-16T05:37:21;32.07;;;26.63;;
16892;SDS011;8563;52.242;9.098;2023-04-16T05:39:53;31.23;;;26.10;;
16892;SDS011;8563;52.242;9.098;2023-04-16T05:42:27;33.57;;;27.50;;
16892;SDS011;8563;52.242;9.098;2023-04-16T05:45:00;29.70;;;26.00;;
16892;SDS011;8563;52.242;9.098;2023-04-16T05:47:33;31.53;;;25.37;;
16892;SDS011;8563;52.242;9.098;2023-04-16T05:50:05;31.93;;;25.63;;
16892;SDS011;8563;52.242;9.098;2023-04-16T05:52:38;27.97;;;23.93;;
16892;SDS011;8563;52.242;9.098;2023-04-16T05:55:10;27.60;;;24.40;;
16892;SDS011;8563;52.242;9.098;2023-04-16T05:57:44;27.43;;;23.90;;
16892;SDS011;8563;52.242;9.098;2023-04-16T06:00:16;25.57;;;22.90;;
16892;SDS011;8563;52.242;9.098;2023-04-16T06:02:48;25.90;;;22.37;;
16892;SDS011;8563;52.242;9.098;2023-04-16T06:05:21;27.97;;;24.17;;
16892;SDS011;8563;52.242;9.098;2023-04-16T06:07:53;26.50;;;23.70;;
16892;SDS011;8563;52.242;9.098;2023-04-16T06:10:26;27.10;;;24.20;;
16892;SDS011;8563;52.242;9.098;2023-04-16T06:13:00;31.43;;;24.87;;
16892;SDS011;8563;52.242;9.098;2023-04-16T06:15:32;26.93;;;24.00;;
16892;SDS011;8563;52.242;9.098;2023-04-16T06:18:04;28.97;;;23.47;;
16892;SDS011;8563;52.242;9.098;2023-04-16T06:20:37;25.83;;;23.13;;
16892;SDS011;8563;52.242;9.098;2023-04-16T06:23:09;26.63;;;23.83;;
16892;SDS011;8563;52.242;9.098;2023-04-16T06:25:41;26.60;;;23.80;;
16892;SDS011;8563;52.242;9.098;2023-04-16T06:28:15;28.43;;;23.73;;
16892;SDS011;8563;52.242;9.098;2023-04-16T06:30:47;26.63;;;23.80;;
16892;SDS011;8563;52.242;9.098;2023-04-16T06:33:19;28.43;;;23.40;;
16892;SDS011;8563;52.242;9.098;2023-04-16T06:35:51;25.50;;;22.80;;
16892;SDS011;8563;52.242;9.098;2023-04-16T06:38:23;26.83;;;21.33;;
16892;SDS011;8563;52.242;9.098;2023-04-16T06:40:56;26.23;;;23.13;;
16892;SDS011;8563;52.242;9.098;2023-04-16T06:43:30;25.27;;;22.07;;
16892;SDS011;8563;52.242;9.098;2023-04-16T06:46:03;25.50;;;22.77;;
16892;SDS011;8563;52.242;9.098;2023-04-16T06:48:35;27.63;;;22.90;;
16892;SDS011;8563;52.242;9.098;2023-04-16T06:51:07;23.93;;;20.90;;
16892;SDS011;8563;52.242;9.098;2023-04-16T06:53:40;24.57;;;20.60;;
16892;SDS011;8563;52.242;9.098;2023-04-16T06:56:13;23.47;;;20.83;;
16892;SDS011;8563;52.242;9.098;2023-04-16T06:58:47;25.50;;;21.70;;
16892;SDS011;8563;52.242;9.098;2023-04-16T07:01:19;25.27;;;21.40;;
16892;SDS011;8563;52.242;9.098;2023-04-16T07:03:51;23.03;;;20.23;;
16892;SDS011;8563;52.242;9.098;2023-04-16T07:06:24;21.33;;;19.17;;
16892;SDS011;8563;52.242;9.098;2023-04-16T07:08:57;22.77;;;19.80;;
16892;SDS011;8563;52.242;9.098;2023-04-16T07:11:29;23.37;;;19.67;;
16892;SDS011;8563;52.242;9.098;2023-04-16T07:14:02;21.53;;;19.33;;
16892;SDS011;8563;52.242;9.098;2023-04-16T07:16:36;21.27;;;19.03;;
16892;SDS011;8563;52.242;9.098;2023-04-16T07:19:09;25.90;;;20.23;;
16892;SDS011;8563;52.242;9.098;2023-04-16T07:21:41;22.07;;;19.10;;
16892;SDS011;8563;52.242;9.098;2023-04-16T07:24:13;21.50;;;19.20;;
16892;SDS011;8563;52.242;9.098;2023-04-16T07:26:46;22.70;;;19.73;;
16892;SDS011;8563;52.242;9.098;2023-04-16T07:29:19;21.17;;;18.87;;
16892;SDS011;8563;52.242;9.098;2023-04-16T07:31:52;20.60;;;17.83;;
16892;SDS011;8563;52.242;9.098;2023-04-16T07:34:24;21.37;;;18.97;;
16892;SDS011;8563;52.242;9.098;2023-04-16T07:36:56;21.43;;;19.27;;
16892;SDS011;8563;52.242;9.098;2023-04-16T07:39:28;21.30;;;19.03;;
16892;SDS011;8563;52.242;9.098;2023-04-16T07:42:01;20.83;;;18.63;;
16892;SDS011;8563;52.242;9.098;2023-04-16T07:44:34;21.23;;;19.00;;
16892;SDS011;8563;52.242;9.098;2023-04-16T07:47:07;20.97;;;18.13;;
16892;SDS011;8563;52.242;9.098;2023-04-16T07:49:39;22.67;;;18.83;;
16892;SDS011;8563;52.242;9.098;2023-04-16T07:52:11;20.77;;;18.57;;
16892;SDS011;8563;52.242;9.098;2023-04-16T07:54:43;21.30;;;18.17;;
16892;SDS011;8563;52.242;9.098;2023-04-16T07:57:16;20.57;;;18.37;;
16892;SDS011;8563;52.242;9.098;2023-04-16T07:59:49;21.30;;;18.83;;
16892;SDS011;8563;52.242;9.098;2023-04-16T08:02:21;21.20;;;19.03;;
16892;SDS011;8563;52.242;9.098;2023-04-16T08:04:54;22.13;;;19.00;;
16892;SDS011;8563;52.242;9.098;2023-04-16T08:07:26;20.87;;;18.60;;
16892;SDS011;8563;52.242;9.098;2023-04-16T08:09:58;20.63;;;17.87;;
16892;SDS011;8563;52.242;9.098;2023-04-16T08:12:31;22.33;;;18.47;;
16892;SDS011;8563;52.242;9.098;2023-04-16T08:15:06;20.77;;;18.57;;
16892;SDS011;8563;52.242;9.098;2023-04-16T08:17:39;20.67;;;18.60;;
16892;SDS011;8563;52.242;9.098;2023-04-16T08:20:11;21.87;;;19.53;;
16892;SDS011;8563;52.242;9.098;2023-04-16T08:22:43;18.90;;;16.90;;
16892;SDS011;8563;52.242;9.098;2023-04-16T08:25:16;20.90;;;17.57;;
16892;SDS011;8563;52.242;9.098;2023-04-16T08:27:48;21.13;;;18.87;;
16892;SDS011;8563;52.242;9.098;2023-04-16T08:30:21;19.90;;;17.90;;
16892;SDS011;8563;52.242;9.098;2023-04-16T08:32:54;19.63;;;16.87;;
16892;SDS011;8563;52.242;9.098;2023-04-16T08:35:26;19.37;;;17.47;;
16892;SDS011;8563;52.242;9.098;2023-04-16T08:37:58;20.20;;;18.20;;
16892;SDS011;8563;52.242;9.098;2023-04-16T08:40:30;27.13;;;17.57;;
16892;SDS011;8563;52.242;9.098;2023-04-16T08:43:08;20.70;;;18.10;;
16892;SDS011;8563;52.242;9.098;2023-04-16T08:45:43;19.03;;;16.80;;
16892;SDS011;8563;52.242;9.098;2023-04-16T08:48:18;19.83;;;17.80;;
16892;SDS011;8563;52.242;9.098;2023-04-16T08:50:52;19.53;;;16.63;;
16892;SDS011;8563;52.242;9.098;2023-04-16T08:53:28;21.83;;;16.70;;
16892;SDS011;8563;52.242;9.098;2023-04-16T08:56:06;23.37;;;17.93;;
16892;SDS011;8563;52.242;9.098;2023-04-16T08:58:41;19.63;;;17.63;;
16892;SDS011;8563;52.242;9.098;2023-04-16T09:01:16;20.20;;;17.47;;
16892;SDS011;8563;52.242;9.098;2023-04-16T09:03:49;18.93;;;16.13;;
16892;SDS011;8563;52.242;9.098;2023-04-16T09:06:21;18.03;;;16.13;;
16892;SDS011;8563;52.242;9.098;2023-04-16T09:08:54;17.60;;;15.80;;
16892;SDS011;8563;52.242;9.098;2023-04-16T09:11:29;17.33;;;15.53;;
16892;SDS011;8563;52.242;9.098;2023-04-16T09:14:02;19.87;;;16.70;;
16892;SDS011;8563;52.242;9.098;2023-04-16T09:16:36;19.23;;;17.17;;
16892;SDS011;8563;52.242;9.098;2023-04-16T09:19:09;17.37;;;15.57;;
16892;SDS011;8563;52.242;9.098;2023-04-16T09:21:41;18.73;;;16.77;;
16892;SDS011;8563;52.242;9.098;2023-04-16T09:24:15;19.53;;;15.27;;
16892;SDS011;8563;52.242;9.098;2023-04-16T09:26:48;17.30;;;15.60;;
16892;SDS011;8563;52.242;9.098;2023-04-16T09:29:32;19.93;;;17.77;;
16892;SDS011;8563;52.242;9.098;2023-04-16T09:32:08;18.50;;;16.00;;
16892;SDS011;8563;52.242;9.098;2023-04-16T09:34:54;18.83;;;16.83;;
16892;SDS011;8563;52.242;9.098;2023-04-16T09:37:28;22.00;;;16.60;;
16892;SDS011;8563;52.242;9.098;2023-04-16T09:40:01;18.07;;;16.20;;
16892;SDS011;8563;52.242;9.098;2023-04-16T09:42:35;18.60;;;15.80;;
16892;SDS011;8563;52.242;9.098;2023-04-16T09:45:08;18.83;;;16.17;;
16892;SDS011;8563;52.242;9.098;2023-04-16T09:47:42;18.47;;;16.13;;
16892;SDS011;8563;52.242;9.098;2023-04-16T09:50:16;18.03;;;16.13;;
16892;SDS011;8563;52.242;9.098;2023-04-16T09:52:49;21.17;;;17.17;;
16892;SDS011;8563;52.242;9.098;2023-04-16T09:55:21;19.37;;;17.27;;
16892;SDS011;8563;52.242;9.098;2023-04-16T09:57:57;19.10;;;17.17;;
16892;SDS011;8563;52.242;9.098;2023-04-16T10:00:30;17.70;;;15.83;;
16892;SDS011;8563;52.242;9.098;2023-04-16T10:03:04;18.93;;;16.77;;
16892;SDS011;8563;52.242;9.098;2023-04-16T10:05:37;16.67;;;14.87;;
16892;SDS011;8563;52.242;9.098;2023-04-16T10:08:10;17.20;;;15.40;;
16892;SDS011;8563;52.242;9.098;2023-04-16T10:10:42;18.00;;;15.90;;
16892;SDS011;8563;52.242;9.098;2023-04-16T10:13:15;17.50;;;15.50;;
16892;SDS011;8563;52.242;9.098;2023-04-16T10:15:48;18.03;;;15.40;;
16892;SDS011;8563;52.242;9.098;2023-04-16T10:18:22;16.83;;;14.93;;
16892;SDS011;8563;52.242;9.098;2023-04-16T10:20:54;19.70;;;15.20;;
16892;SDS011;8563;52.242;9.098;2023-04-16T10:23:28;17.30;;;15.50;;
16892;SDS011;8563;52.242;9.098;2023-04-16T10:26:00;17.00;;;15.33;;
16892;SDS011;8563;52.242;9.098;2023-04-16T10:28:33;16.53;;;14.77;;
16892;SDS011;8563;52.242;9.098;2023-04-16T10:31:06;16.83;;;15.03;;
16892;SDS011;8563;52.242;9.098;2023-04-16T10:33:40;16.80;;;15.13;;
16892;SDS011;8563;52.242;9.098;2023-04-16T10:36:14;17.93;;;14.63;;
16892;SDS011;8563;52.242;9.098;2023-04-16T10:38:48;17.80;;;15.43;;
16892;SDS011;8563;52.242;9.098;2023-04-16T10:41:21;15.90;;;14.07;;
16892;SDS011;8563;52.242;9.098;2023-04-16T10:44:02;16.57;;;14.60;;
16892;SDS011;8563;52.242;9.098;2023-04-16T10:46:39;16.43;;;14.63;;
16892;SDS011;8563;52.242;9.098;2023-04-16T10:49:14;17.67;;;15.80;;
16892;SDS011;8563;52.242;9.098;2023-04-16T10:51:52;16.77;;;14.90;;
16892;SDS011;8563;52.242;9.098;2023-04-16T10:54:25;19.07;;;15.07;;
16892;SDS011;8563;52.242;9.098;2023-04-16T10:56:59;17.27;;;14.53;;
16892;SDS011;8563;52.242;9.098;2023-04-16T10:59:34;17.43;;;15.20;;
16892;SDS011;8563;52.242;9.098;2023-04-16T11:02:11;16.30;;;14.67;;
16892;SDS011;8563;52.242;9.098;2023-04-16T11:04:46;16.63;;;14.80;;
16892;SDS011;8563;52.242;9.098;2023-04-16T11:07:19;15.90;;;14.33;;
16892;SDS011;8563;52.242;9.098;2023-04-16T11:09:53;17.33;;;14.90;;
16892;SDS011;8563;52.242;9.098;2023-04-16T11:12:31;17.20;;;14.73;;
16892;SDS011;8563;52.242;9.098;2023-04-16T11:15:05;17.17;;;15.37;;
16892;SDS011;8563;52.242;9.098;2023-04-16T11:17:39;17.13;;;15.33;;
16892;SDS011;8563;52.242;9.098;2023-04-16T11:20:17;17.97;;;15.50;;
16892;SDS011;8563;52.242;9.098;2023-04-16T11:22:51;16.10;;;14.20;;
16892;SDS011;8563;52.242;9.098;2023-04-16T11:25:25;16.73;;;15.03;;
16892;SDS011;8563;52.242;9.098;2023-04-16T11:27:58;19.93;;;16.20;;
16892;SDS011;8563;52.242;9.098;2023-04-16T11:30:33;17.83;;;15.93;;
16892;SDS011;8563;52.242;9.098;2023-04-16T11:33:06;18.20;;;16.33;;
16892;SDS011;8563;52.242;9.098;2023-04-16T11:35:41;18.67;;;16.67;;
16892;SDS011;8563;52.242;9.098;2023-04-16T11:38:16;19.43;;;17.07;;
16892;SDS011;8563;52.242;9.098;2023-04-16T11:40:49;19.80;;;17.73;;
16892;SDS011;8563;52.242;9.098;2023-04-16T11:43:23;18.67;;;16.67;;
16892;SDS011;8563;52.242;9.098;2023-04-16T11:45:57;20.63;;;15.90;;
16892;SDS011;8563;52.242;9.098;2023-04-16T11:51:26;22.03;;;16.87;;
16892;SDS011;8563;52.242;9.098;2023-04-16T11:53:58;20.40;;;16.83;;
16892;SDS011;8563;52.242;9.098;2023-04-16T11:56:31;18.47;;;16.10;;
16892;SDS011;8563;52.242;9.098;2023-04-16T11:59:10;19.47;;;17.13;;
16892;SDS011;8563;52.242;9.098;2023-04-16T12:01:45;21.63;;;17.60;;
16892;SDS011;8563;52.242;9.098;2023-04-16T12:04:18;18.63;;;15.90;;
16892;SDS011;8563;52.242;9.098;2023-04-16T12:07:18;18.13;;;16.23;;
16892;SDS011;8563;52.242;9.098;2023-04-16T12:09:50;20.83;;;16.97;;
16892;SDS011;8563;52.242;9.098;2023-04-16T12:12:35;17.87;;;15.97;;
16892;SDS011;8563;52.242;9.098;2023-04-16T12:15:07;19.47;;;16.50;;
16892;SDS011;8563;52.242;9.098;2023-04-16T12:17:40;18.40;;;16.33;;
16892;SDS011;8563;52.242;9.098;2023-04-16T12:20:13;19.17;;;16.63;;
16892;SDS011;8563;52.242;9.098;2023-04-16T12:22:47;17.97;;;15.20;;
16892;SDS011;8563;52.242;9.098;2023-04-16T12:25:20;19.30;;;15.67;;
16892;SDS011;8563;52.242;9.098;2023-04-16T12:27:55;17.63;;;15.77;;
16892;SDS011;8563;52.242;9.098;2023-04-16T12:30:27;20.50;;;16.03;;
16892;SDS011;8563;52.242;9.098;2023-04-16T12:33:13;19.53;;;16.53;;
16892;SDS011;8563;52.242;9.098;2023-04-16T12:35:46;17.50;;;15.30;;
16892;SDS011;8563;52.242;9.098;2023-04-16T12:38:19;21.57;;;16.17;;
16892;SDS011;8563;52.242;9.098;2023-04-16T12:40:52;17.67;;;15.80;;
16892;SDS011;8563;52.242;9.098;2023-04-16T12:43:26;20.07;;;15.90;;
16892;SDS011;8563;52.242;9.098;2023-04-16T12:45:58;20.53;;;15.97;;
16892;SDS011;8563;52.242;9.098;2023-04-16T12:48:31;18.60;;;15.83;;
16892;SDS011;8563;52.242;9.098;2023-04-16T12:51:03;19.70;;;16.57;;
16892;SDS011;8563;52.242;9.098;2023-04-16T12:53:37;19.27;;;17.27;;
16892;SDS011;8563;52.242;9.098;2023-04-16T12:56:11;19.00;;;15.70;;
16892;SDS011;8563;52.242;9.098;2023-04-16T12:58:43;19.40;;;16.60;;
16892;SDS011;8563;52.242;9.098;2023-04-16T13:01:16;18.83;;;15.83;;
16892;SDS011;8563;52.242;9.098;2023-04-16T13:03:49;17.27;;;14.90;;
16892;SDS011;8563;52.242;9.098;2023-04-16T13:06:21;17.50;;;15.60;;
16892;SDS011;8563;52.242;9.098;2023-04-16T13:08:55;18.90;;;16.43;;
16892;SDS011;8563;52.242;9.098;2023-04-16T13:11:27;19.97;;;14.47;;
16892;SDS011;8563;52.242;9.098;2023-04-16T13:13:59;19.03;;;15.03;;
16892;SDS011;8563;52.242;9.098;2023-04-16T13:16:32;19.37;;;15.13;;
16892;SDS011;8563;52.242;9.098;2023-04-16T13:19:04;18.77;;;15.57;;
16892;SDS011;8563;52.242;9.098;2023-04-16T13:21:36;16.90;;;14.70;;
16892;SDS011;8563;52.242;9.098;2023-04-16T13:24:10;17.43;;;15.63;;
16892;SDS011;8563;52.242;9.098;2023-04-16T13:26:42;19.37;;;15.90;;
16892;SDS011;8563;52.242;9.098;2023-04-16T13:29:14;17.30;;;15.60;;
16892;SDS011;8563;52.242;9.098;2023-04-16T13:31:47;17.87;;;14.37;;
16892;SDS011;8563;52.242;9.098;2023-04-16T13:34:19;17.47;;;15.33;;
16892;SDS011;8563;52.242;9.098;2023-04-16T13:36:51;17.10;;;15.37;;
16892;SDS011;8563;52.242;9.098;2023-04-16T13:39:26;19.23;;;14.73;;
16892;SDS011;8563;52.242;9.098;2023-04-16T13:41:58;18.30;;;15.30;;
16892;SDS011;8563;52.242;9.098;2023-04-16T13:44:31;16.37;;;14.67;;
16892;SDS011;8563;52.242;9.098;2023-04-16T13:47:03;16.80;;;14.63;;
16892;SDS011;8563;52.242;9.098;2023-04-16T13:49:35;19.03;;;15.73;;
16892;SDS011;8563;52.242;9.098;2023-04-16T13:52:08;18.90;;;15.27;;
16892;SDS011;8563;52.242;9.098;2023-04-16T13:54:41;17.63;;;15.70;;
16892;SDS011;8563;52.242;9.098;2023-04-16T13:57:22;19.20;;;14.17;;
16892;SDS011;8563;52.242;9.098;2023-04-16T13:59:56;18.80;;;14.60;;
16892;SDS011;8563;52.242;9.098;2023-04-16T14:02:28;16.83;;;14.23;;
16892;SDS011;8563;52.242;9.098;2023-04-16T14:05:00;15.27;;;13.67;;
16892;SDS011;8563;52.242;9.098;2023-04-16T14:07:33;15.40;;;12.77;;
16892;SDS011;8563;52.242;9.098;2023-04-16T14:10:09;16.33;;;14.47;;
16892;SDS011;8563;52.242;9.098;2023-04-16T14:12:42;18.00;;;14.27;;
16892;SDS011;8563;52.242;9.098;2023-04-16T14:15:14;17.60;;;14.13;;
16892;SDS011;8563;52.242;9.098;2023-04-16T14:17:48;14.73;;;13.33;;
16892;SDS011;8563;52.242;9.098;2023-04-16T14:20:20;14.33;;;12.83;;
16892;SDS011;8563;52.242;9.098;2023-04-16T14:22:52;15.67;;;13.33;;
16892;SDS011;8563;52.242;9.098;2023-04-16T14:25:26;15.20;;;12.97;;
16892;SDS011;8563;52.242;9.098;2023-04-16T14:27:59;15.43;;;13.83;;
16892;SDS011;8563;52.242;9.098;2023-04-16T14:30:31;13.70;;;12.40;;
16892;SDS011;8563;52.242;9.098;2023-04-16T14:33:04;13.87;;;12.30;;
16892;SDS011;8563;52.242;9.098;2023-04-16T14:35:36;15.23;;;13.67;;
16892;SDS011;8563;52.242;9.098;2023-04-16T14:38:09;16.00;;;13.53;;
16892;SDS011;8563;52.242;9.098;2023-04-16T14:40:43;15.43;;;13.53;;
16892;SDS011;8563;52.242;9.098;2023-04-16T14:43:15;17.63;;;14.03;;
16892;SDS011;8563;52.242;9.098;2023-04-16T14:45:47;13.80;;;12.47;;
16892;SDS011;8563;52.242;9.098;2023-04-16T14:48:20;14.17;;;12.63;;
16892;SDS011;8563;52.242;9.098;2023-04-16T14:50:52;14.13;;;12.60;;
16892;SDS011;8563;52.242;9.098;2023-04-16T14:53:25;14.63;;;12.90;;
16892;SDS011;8563;52.242;9.098;2023-04-16T14:55:59;14.80;;;13.37;;
16892;SDS011;8563;52.242;9.098;2023-04-16T14:58:31;20.47;;;13.00;;
16892;SDS011;8563;52.242;9.098;2023-04-16T15:01:05;15.87;;;13.30;;
16892;SDS011;8563;52.242;9.098;2023-04-16T15:03:38;14.70;;;13.30;;
16892;SDS011;8563;52.242;9.098;2023-04-16T15:06:10;14.53;;;12.97;;
16892;SDS011;8563;52.242;9.098;2023-04-16T15:08:43;15.90;;;14.20;;
16892;SDS011;8563;52.242;9.098;2023-04-16T15:11:17;15.87;;;13.43;;
16892;SDS011;8563;52.242;9.098;2023-04-16T15:13:49;15.13;;;13.43;;